Charles B. Wheeler Downtown Airport Kansas City US
ICAO: KMKC
IATA: MKC
Category: Medium
Scheduled Services: No

Elevation: 759 ft
TransAlt. 18000 ft.

Airport Communications:
APP/DEP:119
ATIS:120.75
CLNC DEL:121.9
GND:121.9
COLUMBIA RDO:122.6
DOWNTOWN TWR:133.3
UNICOM:122.95

KMKC Zoom In..

Runways:

(A) RW 01 length 6827 ft width 150 ft
---- / hdg 8

(B) RW 03 length 5050 ft width 100 ft
ILS 111.75 / hdg 33

(C) RW 19 length 6827 ft width 150 ft
ILS 109.90 / hdg 188

(D) RW 21 length 5050 ft width 100 ft
---- / hdg 213

Location; KMKC
Day. 03 / Time. 09.19 Zulu
* Altimeter: 30.27
* Temperature: 03° c. 37.4°f.
* Wind from: 060° Speed 03 kn.
Dewpoint: -06° c.
Visibility: 10 Statute Miles.
Clouds: Broken 2700 ft.
Clouds: Overcast 11000 ft.

KMKC 030919Z 06003KT 10SM BKN027 OVC110 03/M06 A3027 RMK AO2 T00331061

Going to: --> -->


Wind From 060°
Speed 03 kn.

 
 
jpsmedia worldairports.se 2020   terms of use